Terminal Aerodrome Forecast
Issued by NWS

Home | Current Version | Previous Version | Text Only | Print | Product List | Glossary On
Versions: 1 2 3 4 5 6 7 8 9 10 11 12 13 14 15 16 17 18 19 20 21
179
FTUS42 KFFC 061357 AAB
TAFFTY
TAF AMD
KFTY 061357Z 0614/0712 09008KT 3SM -SHRA BR OVC007
      TEMPO 0614/0615 VRB10G18KT 1SM SHRA BR OVC004
     FM061600 15010G18KT 3SM -RA BKN007
     FM061800 25013G20KT P6SM BKN015
     FM062300 31010KT P6SM BKN025
     FM070200 31007KT P6SM BKN015
     FM070900 32005KT P6SM SCT020=

USA.gov is the U.S. government's official web portal to all federal, state and local government web resources and services.